createdAt,value
2022-10-18T00:00:46.211Z,2.47
2022-10-18T00:03:12.535Z,3.08
2022-10-18T00:05:39.214Z,3.00
2022-10-18T00:08:05.652Z,5.60
2022-10-18T00:10:31.990Z,5.25
2022-10-18T00:12:58.762Z,2.58
2022-10-18T00:15:25.070Z,2.05
2022-10-18T00:17:51.487Z,4.60
2022-10-18T00:20:18.454Z,2.65
2022-10-18T00:22:44.782Z,4.25
2022-10-18T00:25:11.086Z,2.20
2022-10-18T00:27:38.015Z,1.77
2022-10-18T00:30:05.538Z,4.13
2022-10-18T00:32:36.497Z,2.35
2022-10-18T00:35:04.490Z,2.13
2022-10-18T00:37:31.159Z,4.20
2022-10-18T00:39:57.932Z,3.50
2022-10-18T00:42:30.642Z,3.75
2022-10-18T00:45:02.273Z,2.58
2022-10-18T00:47:29.369Z,3.70
2022-10-18T00:49:58.801Z,2.25
2022-10-18T00:52:35.560Z,3.17
2022-10-18T00:55:03.527Z,3.95
2022-10-18T00:57:30.140Z,2.78
2022-10-18T00:59:56.732Z,2.95
2022-10-18T01:02:25.080Z,2.85
2022-10-18T01:04:51.696Z,4.05
2022-10-18T01:07:40.205Z,2.63
2022-10-18T01:10:14.983Z,5.70
2022-10-18T01:15:12.920Z,1.38
2022-10-18T01:18:06.725Z,3.88
2022-10-18T01:20:43.779Z,2.05
2022-10-18T01:23:30.748Z,1.42
2022-10-18T01:26:09.029Z,4.25
2022-10-18T01:28:54.431Z,4.63
2022-10-18T01:31:25.794Z,1.73
2022-10-18T01:33:59.955Z,3.60
2022-10-18T01:36:32.830Z,5.80
2022-10-18T01:39:03.451Z,1.80
2022-10-18T01:41:30.295Z,2.05
2022-10-18T01:44:00.969Z,4.57
2022-10-18T01:46:29.683Z,3.72
2022-10-18T01:48:57.532Z,5.38
2022-10-18T01:51:29.015Z,5.05
2022-10-18T01:53:56.696Z,5.30
2022-10-18T01:56:42.508Z,3.05
2022-10-18T01:59:28.104Z,2.20
2022-10-18T02:02:10.144Z,2.55
2022-10-18T02:04:51.651Z,4.38
2022-10-18T02:07:36.327Z,2.50
2022-10-18T02:12:49.631Z,5.88
2022-10-18T02:15:22.450Z,3.78
2022-10-18T02:17:48.841Z,2.65
2022-10-18T02:20:20.812Z,2.80
2022-10-18T02:22:50.586Z,6.38
2022-10-18T02:25:22.791Z,4.78
2022-10-18T02:27:49.515Z,7.15
2022-10-18T02:30:16.776Z,4.07
2022-10-18T02:33:02.584Z,4.22
2022-10-18T02:35:44.547Z,3.92
2022-10-18T02:38:14.532Z,4.45
2022-10-18T02:40:41.239Z,4.88
2022-10-18T02:43:07.916Z,4.43
2022-10-18T02:45:34.304Z,5.75
2022-10-18T02:48:00.818Z,5.30
2022-10-18T02:50:27.687Z,4.35
2022-10-18T02:52:54.605Z,3.65
2022-10-18T02:55:20.961Z,4.72
2022-10-18T02:57:47.777Z,3.67
2022-10-18T03:00:14.668Z,4.30
2022-10-18T03:02:40.993Z,3.85
2022-10-18T03:05:08.251Z,4.80
2022-10-18T03:07:34.852Z,5.95
2022-10-18T03:10:01.374Z,4.28
2022-10-18T03:12:28.106Z,3.70
2022-10-18T03:14:54.420Z,4.78
2022-10-18T03:17:20.987Z,3.80
2022-10-18T03:19:47.312Z,3.60
2022-10-18T03:22:13.651Z,5.40
2022-10-18T03:24:39.978Z,5.78
2022-10-18T03:27:06.367Z,4.90
2022-10-18T03:29:32.741Z,6.30
2022-10-18T03:31:59.396Z,4.18
2022-10-18T03:34:25.720Z,4.32
2022-10-18T03:36:52.499Z,3.92
2022-10-18T03:39:18.863Z,5.38
2022-10-18T03:41:45.250Z,4.45
2022-10-18T03:44:11.966Z,4.38
2022-10-18T03:46:38.275Z,6.75
2022-10-18T03:49:04.650Z,6.00
2022-10-18T03:51:31.507Z,6.57
2022-10-18T03:53:57.816Z,6.53
2022-10-18T03:56:24.157Z,3.60
2022-10-18T03:58:50.972Z,5.70
2022-10-18T04:01:17.341Z,5.72
2022-10-18T04:03:43.727Z,5.55
2022-10-18T04:06:10.607Z,6.88
2022-10-18T04:08:36.964Z,7.65
2022-10-18T04:11:12.412Z,8.45
2022-10-18T04:13:38.924Z,11.18
2022-10-18T04:16:05.370Z,4.97
2022-10-18T04:18:32.106Z,8.75
2022-10-18T04:20:58.795Z,8.43
2022-10-18T04:23:25.127Z,9.27
2022-10-18T04:25:51.997Z,12.13
2022-10-18T04:28:18.640Z,14.60
2022-10-18T04:30:50.124Z,14.93
2022-10-18T04:33:16.983Z,16.48
2022-10-18T04:35:43.304Z,19.40
2022-10-18T04:38:10.070Z,16.27
2022-10-18T04:40:37.959Z,23.38
2022-10-18T04:43:04.260Z,16.92
2022-10-18T04:45:30.699Z,20.92
2022-10-18T04:47:57.526Z,19.27
2022-10-18T04:50:23.871Z,19.80
2022-10-18T04:55:21.773Z,17.17
2022-10-18T04:57:48.183Z,19.13
2022-10-18T05:00:14.876Z,17.45
2022-10-18T05:02:41.717Z,13.60
2022-10-18T05:05:10.409Z,11.20
2022-10-18T05:07:39.666Z,12.25
2022-10-18T05:10:06.317Z,9.23
2022-10-18T05:12:32.916Z,13.70
2022-10-18T05:14:59.483Z,8.52
2022-10-18T05:17:26.324Z,7.85
2022-10-18T05:19:52.636Z,8.73
2022-10-18T05:22:18.970Z,7.88
2022-10-18T05:24:45.772Z,8.27
2022-10-18T05:27:12.155Z,9.40
2022-10-18T05:29:38.540Z,11.00
2022-10-18T05:32:05.388Z,9.93
2022-10-18T05:34:34.375Z,9.05
2022-10-18T05:37:00.836Z,10.40
2022-10-18T05:39:27.631Z,10.68
2022-10-18T05:41:54.003Z,10.43
2022-10-18T05:44:20.446Z,10.60
2022-10-18T05:46:47.017Z,10.15
2022-10-18T05:49:13.907Z,8.35
2022-10-18T05:51:40.327Z,8.75
2022-10-18T05:54:06.762Z,11.00
2022-10-18T05:56:33.180Z,15.25
2022-10-18T05:58:59.531Z,12.45
2022-10-18T06:01:26.303Z,9.73
2022-10-18T06:03:53.059Z,8.57
2022-10-18T06:06:19.377Z,10.75
2022-10-18T06:08:49.238Z,7.55
2022-10-18T06:11:19.032Z,9.07
2022-10-18T06:13:47.820Z,10.15
2022-10-18T06:16:17.037Z,8.32
2022-10-18T06:18:47.084Z,9.10
2022-10-18T06:21:13.398Z,10.48
2022-10-18T06:23:40.051Z,9.43
2022-10-18T06:26:09.646Z,11.52
2022-10-18T06:28:37.769Z,13.60
2022-10-18T06:31:05.257Z,10.80
2022-10-18T06:33:32.992Z,10.80
2022-10-18T06:36:05.517Z,9.13
2022-10-18T06:38:32.712Z,8.50
2022-10-18T06:40:59.562Z,8.25
2022-10-18T06:43:26.407Z,10.30
2022-10-18T06:45:54.800Z,11.57
2022-10-18T06:48:21.900Z,9.00
2022-10-18T06:50:57.642Z,10.43
2022-10-18T06:53:25.600Z,8.13
2022-10-18T06:55:52.207Z,9.88
2022-10-18T06:58:19.106Z,10.55
2022-10-18T07:00:46.826Z,8.45
2022-10-18T07:03:13.892Z,8.77
2022-10-18T07:05:40.331Z,9.40
2022-10-18T07:08:06.651Z,8.85
2022-10-18T07:10:33.571Z,9.60
2022-10-18T07:13:20.117Z,8.43
2022-10-18T07:15:46.644Z,8.88
2022-10-18T07:18:13.229Z,10.75
2022-10-18T07:20:39.701Z,13.10
2022-10-18T07:23:08.956Z,12.25
2022-10-18T07:25:35.828Z,14.73
2022-10-18T07:28:02.377Z,11.20
2022-10-18T07:30:29.354Z,19.20
2022-10-18T07:32:55.660Z,22.63
2022-10-18T07:35:21.968Z,33.22
2022-10-18T07:37:48.673Z,33.60
2022-10-18T07:40:15.135Z,30.27
2022-10-18T07:42:41.451Z,28.95
2022-10-18T07:45:08.579Z,24.52
2022-10-18T07:47:35.416Z,23.52
2022-10-18T07:50:02.257Z,30.67
2022-10-18T07:52:28.584Z,28.52
2022-10-18T07:54:54.906Z,19.58
2022-10-18T07:57:21.647Z,24.17
2022-10-18T07:59:48.511Z,14.20
2022-10-18T08:02:14.880Z,8.73
2022-10-18T08:04:41.534Z,9.32
2022-10-18T08:07:08.034Z,13.23
2022-10-18T08:09:34.348Z,10.57
2022-10-18T08:12:00.683Z,9.95
2022-10-18T08:14:27.407Z,10.27
2022-10-18T08:16:56.099Z,9.68
2022-10-18T08:19:22.474Z,9.27
2022-10-18T08:21:48.800Z,10.13
2022-10-18T08:24:15.802Z,7.97
2022-10-18T08:26:42.154Z,7.82
2022-10-18T08:29:22.553Z,10.55
2022-10-18T08:31:51.491Z,12.70
2022-10-18T08:34:19.780Z,9.48
2022-10-18T08:36:46.199Z,11.43
2022-10-18T08:39:12.947Z,9.88
2022-10-18T08:41:52.351Z,10.43
2022-10-18T08:44:27.202Z,12.02
2022-10-18T08:47:03.014Z,9.70
2022-10-18T08:49:44.168Z,10.05
2022-10-18T08:52:33.835Z,9.07
2022-10-18T08:55:28.111Z,10.15
2022-10-18T08:57:57.664Z,14.02
2022-10-18T09:00:28.871Z,8.63
2022-10-18T09:03:27.589Z,10.00
2022-10-18T09:06:09.462Z,10.32
2022-10-18T09:08:48.007Z,15.18
2022-10-18T09:11:42.319Z,11.05
2022-10-18T09:14:37.203Z,14.57
2022-10-18T09:17:28.152Z,12.95
2022-10-18T09:20:13.322Z,11.82
2022-10-18T09:22:54.160Z,12.75
2022-10-18T09:25:28.295Z,10.05
2022-10-18T09:27:56.179Z,15.45
2022-10-18T09:30:37.817Z,11.13
2022-10-18T09:33:13.440Z,12.10
2022-10-18T09:35:47.731Z,14.05
2022-10-18T09:38:19.299Z,10.40
2022-10-18T09:40:58.790Z,5.88
2022-10-18T09:43:49.586Z,9.65
2022-10-18T09:46:19.816Z,6.93
2022-10-18T09:48:54.849Z,8.70
2022-10-18T09:51:29.611Z,11.30
2022-10-18T09:54:02.387Z,8.25
2022-10-18T09:56:52.015Z,9.23
2022-10-18T09:59:42.951Z,10.27
2022-10-18T10:02:16.775Z,10.77
2022-10-18T10:04:44.109Z,9.88
2022-10-18T10:07:35.215Z,15.93
2022-10-18T10:10:13.947Z,9.50
2022-10-18T10:12:41.063Z,8.90
2022-10-18T10:15:31.195Z,10.65
2022-10-18T10:18:01.682Z,11.88
2022-10-18T10:20:35.839Z,10.25
2022-10-18T10:25:38.273Z,10.25
2022-10-18T10:28:16.004Z,11.23
2022-10-18T10:30:42.971Z,8.57
2022-10-18T10:33:37.498Z,14.57
2022-10-18T10:36:19.283Z,8.45
2022-10-18T10:38:45.739Z,8.43
2022-10-18T10:41:22.425Z,7.82
2022-10-18T10:43:51.047Z,7.57
2022-10-18T10:46:20.801Z,9.63
2022-10-18T10:49:08.399Z,8.90
2022-10-18T10:51:40.913Z,7.93
2022-10-18T10:54:13.375Z,8.20
2022-10-18T10:57:03.975Z,10.63
2022-10-18T10:59:38.892Z,9.10
2022-10-18T11:02:15.183Z,8.00
2022-10-18T11:04:42.813Z,10.07
2022-10-18T11:07:15.676Z,9.63
2022-10-18T11:10:15.244Z,7.68
2022-10-18T11:12:55.689Z,7.72
2022-10-18T11:15:32.787Z,13.20
2022-10-18T11:18:28.992Z,6.90
2022-10-18T11:21:07.774Z,8.55
2022-10-18T11:23:37.009Z,6.90
2022-10-18T11:26:13.049Z,6.70
2022-10-18T11:29:06.181Z,7.93
2022-10-18T11:31:35.833Z,6.30
2022-10-18T11:34:39.831Z,6.82
2022-10-18T11:37:29.463Z,7.25
2022-10-18T11:40:17.387Z,5.15
2022-10-18T11:43:08.789Z,8.40
2022-10-18T11:45:44.405Z,9.13
2022-10-18T11:48:24.461Z,6.30
2022-10-18T11:51:14.927Z,7.97
2022-10-18T11:54:17.673Z,5.47
2022-10-18T11:57:21.712Z,5.70
2022-10-18T12:00:08.347Z,4.25
2022-10-18T12:02:56.323Z,8.80
2022-10-18T12:05:25.108Z,6.68
2022-10-18T12:07:58.653Z,5.25
2022-10-18T12:10:44.171Z,4.90
2022-10-18T12:13:25.501Z,3.60
2022-10-18T12:15:52.695Z,4.45
2022-10-18T12:18:23.951Z,5.47
2022-10-18T12:20:57.142Z,7.15
2022-10-18T12:23:26.229Z,8.33
2022-10-18T12:26:01.574Z,4.88
2022-10-18T12:28:48.919Z,10.38
2022-10-18T12:31:26.347Z,6.55
2022-10-18T12:34:00.316Z,4.97
2022-10-18T12:36:54.047Z,6.57
2022-10-18T12:39:37.583Z,7.65
2022-10-18T12:42:29.442Z,5.22
2022-10-18T12:45:07.175Z,4.85
2022-10-18T12:47:34.435Z,9.63
2022-10-18T12:50:05.074Z,6.35
2022-10-18T12:52:35.180Z,4.25
2022-10-18T12:55:06.905Z,7.97
2022-10-18T12:57:51.780Z,7.05
2022-10-18T13:00:38.314Z,6.68
2022-10-18T13:03:14.894Z,5.13
2022-10-18T13:05:55.646Z,4.10
2022-10-18T13:08:34.212Z,8.50
2022-10-18T13:11:09.725Z,5.40
2022-10-18T13:13:45.806Z,4.25
2022-10-18T13:16:24.850Z,5.28
2022-10-18T13:18:59.782Z,4.60
2022-10-18T13:21:45.921Z,5.28
2022-10-18T13:24:24.437Z,4.53
2022-10-18T13:27:24.317Z,4.97
2022-10-18T13:30:30.622Z,3.50
2022-10-18T13:33:22.173Z,3.95
2022-10-18T13:35:52.876Z,2.83
2022-10-18T13:38:37.358Z,4.30
2022-10-18T13:43:54.081Z,3.80
2022-10-18T13:46:22.749Z,5.30
2022-10-18T13:48:54.708Z,6.22
2022-10-18T13:51:46.275Z,5.15
2022-10-18T13:54:50.438Z,6.25
2022-10-18T13:57:17.322Z,4.75
2022-10-18T13:59:53.595Z,7.35
2022-10-18T14:02:36.370Z,6.50
2022-10-18T14:05:25.165Z,7.28
2022-10-18T14:07:57.924Z,4.90
2022-10-18T14:10:50.270Z,7.70
2022-10-18T14:13:24.451Z,5.25
2022-10-18T14:15:55.180Z,5.68
2022-10-18T14:18:40.602Z,6.07
2022-10-18T14:21:21.874Z,7.35
2022-10-18T14:23:50.370Z,6.40
2022-10-18T14:26:19.883Z,8.25
2022-10-18T14:29:05.573Z,6.80
2022-10-18T14:31:33.719Z,6.88
2022-10-18T14:34:00.874Z,4.50
2022-10-18T14:36:34.794Z,7.80
2022-10-18T14:39:05.235Z,7.47
2022-10-18T14:41:38.819Z,6.20
2022-10-18T14:44:14.184Z,6.90
2022-10-18T14:46:45.007Z,6.07
2022-10-18T14:49:12.821Z,5.97
2022-10-18T14:51:42.443Z,5.10
2022-10-18T14:54:18.756Z,4.85
2022-10-18T14:56:45.751Z,4.93
2022-10-18T14:59:22.192Z,7.03
2022-10-18T15:02:12.782Z,8.52
2022-10-18T15:04:39.479Z,6.07
2022-10-18T15:07:13.262Z,7.60
2022-10-18T15:09:40.428Z,6.53
2022-10-18T15:12:07.408Z,4.90
2022-10-18T15:14:34.612Z,6.15
2022-10-18T15:17:12.732Z,8.88
2022-10-18T15:19:39.481Z,3.97
2022-10-18T15:25:21.283Z,9.90
2022-10-18T15:27:54.035Z,6.32
2022-10-18T15:30:24.286Z,13.05
2022-10-18T15:32:55.532Z,13.60
2022-10-18T15:35:26.284Z,10.48
2022-10-18T15:37:54.975Z,9.32
2022-10-18T15:40:21.240Z,7.13
2022-10-18T15:42:51.207Z,8.77
2022-10-18T15:45:24.009Z,6.60
2022-10-18T15:48:01.861Z,6.70
2022-10-18T15:50:47.181Z,7.45
2022-10-18T15:53:22.794Z,5.07
2022-10-18T15:56:01.898Z,6.57
2022-10-18T15:58:44.648Z,3.63
2022-10-18T16:01:38.645Z,7.15
2022-10-18T16:04:09.944Z,4.88
2022-10-18T16:06:38.474Z,6.22
2022-10-18T16:09:05.693Z,7.32
2022-10-18T16:11:32.596Z,7.95
2022-10-18T16:14:00.522Z,6.10
2022-10-18T16:16:30.222Z,5.18
2022-10-18T16:18:57.553Z,5.75
2022-10-18T16:21:30.943Z,4.70
2022-10-18T16:23:58.684Z,6.30
2022-10-18T16:26:25.998Z,6.78
2022-10-18T16:28:53.608Z,6.70
2022-10-18T16:31:25.453Z,8.25
2022-10-18T16:33:54.752Z,6.15
2022-10-18T16:36:26.499Z,7.45
2022-10-18T16:38:54.817Z,5.72
2022-10-18T16:41:21.712Z,10.25
2022-10-18T16:43:50.025Z,8.57
2022-10-18T16:46:19.191Z,4.20
2022-10-18T16:48:46.526Z,9.23
2022-10-18T16:51:13.536Z,7.18
2022-10-18T16:53:39.998Z,5.38
2022-10-18T16:56:12.836Z,6.47
2022-10-18T16:58:39.199Z,8.40
2022-10-18T17:01:08.116Z,5.05
2022-10-18T17:03:35.452Z,6.63
2022-10-18T17:06:01.822Z,7.50
2022-10-18T17:08:28.506Z,7.25
2022-10-18T17:10:58.151Z,4.05
2022-10-18T17:13:26.182Z,7.05
2022-10-18T17:15:53.021Z,7.22
2022-10-18T17:18:22.635Z,6.10
2022-10-18T17:20:49.475Z,6.90
2022-10-18T17:23:16.119Z,5.95
2022-10-18T17:25:57.894Z,12.15
2022-10-18T17:28:33.128Z,4.45
2022-10-18T17:30:59.870Z,7.43
2022-10-18T17:33:26.253Z,7.28
2022-10-18T17:35:52.578Z,5.47
2022-10-18T17:38:19.335Z,5.05
2022-10-18T17:40:45.657Z,5.30
2022-10-18T17:43:13.511Z,4.85
2022-10-18T17:45:50.849Z,9.18
2022-10-18T17:48:17.658Z,6.45
2022-10-18T17:50:43.966Z,8.25
2022-10-18T17:53:12.231Z,3.40
2022-10-18T17:55:39.518Z,5.07
2022-10-18T17:58:05.864Z,5.32
2022-10-18T18:00:32.800Z,7.13
2022-10-18T18:03:00.266Z,9.20
2022-10-18T18:05:31.395Z,4.55
2022-10-18T18:08:02.731Z,4.85
2022-10-18T18:10:33.296Z,5.18
2022-10-18T18:13:00.193Z,9.13
2022-10-18T18:15:26.540Z,5.75
2022-10-18T18:17:57.129Z,6.63
2022-10-18T18:20:24.684Z,7.47
2022-10-18T18:22:52.134Z,6.95
2022-10-18T18:25:18.887Z,8.93
2022-10-18T18:27:45.206Z,8.60
2022-10-18T18:30:12.270Z,5.72
2022-10-18T18:32:39.098Z,4.97
2022-10-18T18:35:05.868Z,4.60
2022-10-18T18:37:32.340Z,7.82
2022-10-18T18:39:58.995Z,3.95
2022-10-18T18:42:25.380Z,8.75
2022-10-18T18:44:52.099Z,6.35
2022-10-18T18:47:21.972Z,4.72
2022-10-18T18:49:49.283Z,5.65
2022-10-18T18:52:17.036Z,3.67
2022-10-18T18:54:43.360Z,3.10
2022-10-18T18:57:10.148Z,5.03
2022-10-18T18:59:36.502Z,7.05
2022-10-18T19:02:02.842Z,4.20
2022-10-18T19:04:29.969Z,6.95
2022-10-18T19:06:56.338Z,5.35
2022-10-18T19:09:22.966Z,5.63
2022-10-18T19:11:52.895Z,4.78
2022-10-18T19:14:20.184Z,6.22
2022-10-18T19:16:48.398Z,6.65
2022-10-18T19:19:18.506Z,5.38
2022-10-18T19:21:56.533Z,4.68
2022-10-18T19:24:24.474Z,7.35
2022-10-18T19:27:02.613Z,5.75
2022-10-18T19:29:34.913Z,4.38
2022-10-18T19:32:03.618Z,8.55
2022-10-18T19:34:31.178Z,4.93
2022-10-18T19:36:57.782Z,6.63
2022-10-18T19:39:26.476Z,6.32
2022-10-18T19:41:58.269Z,6.97
2022-10-18T19:44:27.346Z,6.25
2022-10-18T19:46:55.139Z,4.28
2022-10-18T19:49:21.839Z,6.32
2022-10-18T19:51:49.368Z,6.82
2022-10-18T19:54:16.286Z,3.95
2022-10-18T19:56:43.355Z,4.97
2022-10-18T19:59:11.584Z,7.22
2022-10-18T20:01:38.531Z,5.93
2022-10-18T20:04:05.347Z,6.25
2022-10-18T20:06:32.370Z,5.72
2022-10-18T20:08:58.963Z,5.78
2022-10-18T20:11:28.002Z,6.30
2022-10-18T20:13:55.791Z,7.53
2022-10-18T20:16:28.123Z,5.25
2022-10-18T20:19:00.104Z,5.63
2022-10-18T20:21:28.176Z,5.00
2022-10-18T20:23:54.984Z,5.97
2022-10-18T20:26:22.751Z,5.57
2022-10-18T20:28:57.791Z,4.53
2022-10-18T20:31:27.706Z,7.50
2022-10-18T20:33:56.275Z,5.60
2022-10-18T20:36:22.650Z,4.10
2022-10-18T20:38:49.809Z,5.95
2022-10-18T20:41:19.848Z,5.18
2022-10-18T20:44:00.099Z,7.50
2022-10-18T20:46:29.979Z,6.60
2022-10-18T20:49:02.711Z,6.47
2022-10-18T20:51:29.142Z,3.28
2022-10-18T20:53:56.639Z,3.47
2022-10-18T20:56:26.279Z,6.03
2022-10-18T20:58:55.386Z,4.10
2022-10-18T21:01:27.218Z,6.22
2022-10-18T21:03:55.215Z,5.07
2022-10-18T21:06:26.575Z,9.45
2022-10-18T21:09:01.176Z,5.10
2022-10-18T21:11:29.755Z,4.20
2022-10-18T21:13:59.528Z,4.20
2022-10-18T21:16:27.021Z,5.53
2022-10-18T21:18:53.607Z,4.75
2022-10-18T21:21:25.418Z,4.13
2022-10-18T21:23:52.696Z,7.85
2022-10-18T21:26:21.237Z,6.75
2022-10-18T21:28:50.614Z,4.82
2022-10-18T21:31:19.634Z,6.18
2022-10-18T21:33:47.250Z,7.15
2022-10-18T21:36:14.674Z,5.03
2022-10-18T21:38:45.585Z,8.68
2022-10-18T21:41:14.912Z,4.70
2022-10-18T21:43:47.045Z,5.55
2022-10-18T21:46:15.033Z,5.13
2022-10-18T21:48:46.844Z,5.25
2022-10-18T21:51:16.174Z,6.93
2022-10-18T21:53:46.403Z,6.53
2022-10-18T21:56:15.549Z,5.65
2022-10-18T21:58:43.172Z,5.70
2022-10-18T22:01:18.146Z,5.15
2022-10-18T22:03:47.420Z,4.38
2022-10-18T22:06:15.161Z,4.57
2022-10-18T22:08:53.251Z,7.32
2022-10-18T22:11:22.929Z,4.38
2022-10-18T22:13:49.491Z,5.93
2022-10-18T22:16:16.526Z,6.05
2022-10-18T22:18:44.435Z,6.32
2022-10-18T22:21:13.322Z,7.32
2022-10-18T22:23:42.935Z,9.55
2022-10-18T22:26:12.329Z,7.80
2022-10-18T22:28:40.523Z,11.57
2022-10-18T22:31:14.196Z,4.25
2022-10-18T22:33:40.508Z,5.85
2022-10-18T22:36:06.924Z,5.80
2022-10-18T22:38:35.388Z,5.70
2022-10-18T22:41:10.399Z,5.30
2022-10-18T22:43:38.107Z,6.25
2022-10-18T22:46:07.310Z,8.48
2022-10-18T22:48:34.494Z,5.20
2022-10-18T22:51:02.200Z,8.73
2022-10-18T22:53:29.118Z,4.05
2022-10-18T22:55:55.680Z,4.22
2022-10-18T22:58:22.920Z,4.35
2022-10-18T23:00:49.630Z,4.72
2022-10-18T23:03:17.070Z,6.82
2022-10-18T23:05:46.216Z,7.72
2022-10-18T23:08:14.130Z,6.70
2022-10-18T23:10:42.302Z,10.77
2022-10-18T23:13:09.422Z,9.65
2022-10-18T23:15:36.262Z,4.75
2022-10-18T23:18:02.616Z,4.55
2022-10-18T23:20:29.290Z,6.53
2022-10-18T23:22:55.669Z,6.30
2022-10-18T23:25:22.193Z,4.53
2022-10-18T23:27:49.104Z,6.50
2022-10-18T23:30:16.595Z,4.68
2022-10-18T23:32:43.239Z,7.82
2022-10-18T23:35:10.220Z,5.25
2022-10-18T23:37:36.828Z,5.03
2022-10-18T23:40:03.762Z,6.32
2022-10-18T23:42:30.430Z,5.30
2022-10-18T23:44:56.736Z,5.93
2022-10-18T23:47:23.455Z,5.18
2022-10-18T23:49:49.826Z,6.22
2022-10-18T23:52:16.188Z,7.22
2022-10-18T23:57:14.302Z,5.30
2022-10-18T23:59:40.985Z,4.95
